ESDF/RNB METAR and TAF weather

Enter ICAO airport designator
Station Type Date Time Source
ESDF METAR 2020/07/09 08:20 UTC NOAA

ESDF 090820Z 23007KT 200V260 9999 SCT029 15/10 Q1013


Station Type Date Time Source
ESDF Decoded METAR 2020/07/09 08:20 UTC NOAA

Ronneby, Sweden (ESDF) 56-16N 015-17E 74M
Jul 09, 2020 - 04:20 AM EDT / 2020.07.09 0820 UTC
Wind: from the SW (230 degrees) at 8 MPH (7 KT) (direction variable):0
Visibility: greater than 7 mile(s):0
Sky conditions: partly cloudy
Temperature: 59 F (15 C)
Dew Point: 50 F (10 C)
Relative Humidity: 72%
Pressure (altimeter): 29.91 in. Hg (1013 hPa)
ob: ESDF 090820Z 23007KT 200V260 9999 SCT029 15/10 Q1013
cycle: 8

Station Type Date Time Source
ESDF TAF 2018/05/29 12:27 UTC NOAA

TAF TAF ESDF 291425Z 2912/2924 07008KT CAVOK
RMK MIL

Example: see airport list